createdAt,value
2022-11-08T00:00:37.173Z,13.50
2022-11-08T00:03:40.177Z,15.38
2022-11-08T00:07:02.408Z,20.05
2022-11-08T00:10:24.181Z,9.77
2022-11-08T00:13:46.408Z,10.48
2022-11-08T00:16:49.422Z,12.55
2022-11-08T00:19:53.040Z,13.18
2022-11-08T00:22:56.176Z,13.70
2022-11-08T00:25:59.282Z,10.48
2022-11-08T00:29:03.701Z,9.48
2022-11-08T00:32:11.526Z,11.25
2022-11-08T00:35:14.724Z,9.30
2022-11-08T00:38:18.034Z,9.80
2022-11-08T00:41:21.219Z,15.18
2022-11-08T00:44:26.332Z,16.90
2022-11-08T00:47:29.333Z,9.75
2022-11-08T00:50:32.360Z,12.50
2022-11-08T00:56:41.149Z,9.43
2022-11-08T00:59:45.568Z,10.03
2022-11-08T01:02:48.842Z,13.30
2022-11-08T01:05:54.896Z,14.03
2022-11-08T01:08:58.524Z,10.35
2022-11-08T01:12:01.513Z,11.30
2022-11-08T01:15:06.548Z,9.50
2022-11-08T01:18:12.026Z,10.85
2022-11-08T01:21:16.424Z,8.27
2022-11-08T01:24:21.247Z,12.88
2022-11-08T01:27:24.247Z,10.63
2022-11-08T01:30:28.621Z,13.75
2022-11-08T01:33:31.609Z,8.13
2022-11-08T01:36:34.584Z,9.93
2022-11-08T01:39:37.543Z,10.80
2022-11-08T01:42:40.630Z,7.90
2022-11-08T01:46:29.751Z,9.02
2022-11-08T01:49:45.984Z,11.80
2022-11-08T01:52:53.887Z,8.55
2022-11-08T01:55:58.610Z,15.85
2022-11-08T01:59:06.767Z,16.63
2022-11-08T02:02:12.627Z,11.32
2022-11-08T02:05:27.971Z,11.43
2022-11-08T02:08:35.542Z,11.88
2022-11-08T02:11:40.392Z,10.35
2022-11-08T02:14:43.410Z,10.60
2022-11-08T02:17:47.930Z,15.30
2022-11-08T02:21:08.155Z,8.52
2022-11-08T02:24:14.281Z,8.10
2022-11-08T02:27:17.359Z,8.18
2022-11-08T02:30:20.550Z,11.20
2022-11-08T02:33:24.680Z,6.23
2022-11-08T02:36:28.375Z,9.40
2022-11-08T02:39:34.212Z,9.90
2022-11-08T02:42:39.370Z,9.80
2022-11-08T02:45:42.417Z,12.38
2022-11-08T02:48:45.470Z,7.72
2022-11-08T02:51:48.482Z,7.43
2022-11-08T02:54:52.846Z,8.63
2022-11-08T02:57:56.145Z,9.98
2022-11-08T03:00:59.272Z,8.37
2022-11-08T03:04:02.341Z,15.82
2022-11-08T03:07:05.381Z,8.45
2022-11-08T03:10:10.634Z,9.18
2022-11-08T03:13:13.766Z,8.35
2022-11-08T03:16:16.838Z,5.60
2022-11-08T03:19:20.018Z,7.85
2022-11-08T03:22:23.078Z,8.13
2022-11-08T03:25:27.705Z,8.10
2022-11-08T03:28:31.072Z,8.02
2022-11-08T03:31:34.492Z,10.27
2022-11-08T03:34:37.593Z,12.67
2022-11-08T03:37:40.648Z,7.97
2022-11-08T03:40:47.257Z,10.35
2022-11-08T03:43:50.242Z,9.68
2022-11-08T03:46:53.415Z,10.02
2022-11-08T03:49:56.531Z,7.68
2022-11-08T03:52:59.694Z,9.25
2022-11-08T03:56:04.193Z,7.03
2022-11-08T03:59:07.456Z,7.05
2022-11-08T04:02:10.464Z,12.87
2022-11-08T04:05:15.577Z,8.05
2022-11-08T04:08:18.870Z,13.93
2022-11-08T04:11:41.293Z,8.43
2022-11-08T04:15:02.055Z,10.13
2022-11-08T04:18:23.012Z,10.68
2022-11-08T04:21:26.119Z,13.95
2022-11-08T04:24:29.305Z,14.82
2022-11-08T04:27:33.590Z,12.73
2022-11-08T04:30:36.662Z,10.48
2022-11-08T04:33:39.730Z,12.13
2022-11-08T04:36:42.968Z,12.07
2022-11-08T04:39:45.968Z,12.68
2022-11-08T04:42:50.527Z,9.65
2022-11-08T04:45:53.548Z,8.27
2022-11-08T04:48:59.598Z,9.63
2022-11-08T04:52:02.612Z,9.48
2022-11-08T04:55:06.452Z,10.32
2022-11-08T04:58:11.374Z,12.07
2022-11-08T05:01:17.787Z,13.27
2022-11-08T05:04:20.774Z,13.15
2022-11-08T05:07:23.695Z,14.07
2022-11-08T05:10:26.761Z,21.05
2022-11-08T05:13:32.181Z,13.98
2022-11-08T05:16:35.213Z,13.80
2022-11-08T05:19:56.075Z,11.93
2022-11-08T05:23:20.778Z,11.25
2022-11-08T05:29:28.508Z,13.27
2022-11-08T05:32:31.523Z,15.77
2022-11-08T05:35:35.167Z,15.48
2022-11-08T05:38:38.882Z,11.80
2022-11-08T05:41:41.897Z,12.25
2022-11-08T05:44:46.325Z,15.40
2022-11-08T05:47:49.509Z,14.60
2022-11-08T05:50:52.610Z,12.82
2022-11-08T05:53:55.867Z,18.23
2022-11-08T05:56:58.961Z,15.57
2022-11-08T06:00:05.122Z,11.10
2022-11-08T06:03:08.732Z,17.40
2022-11-08T06:06:13.999Z,12.15
2022-11-08T06:09:16.955Z,16.60
2022-11-08T06:12:21.939Z,11.25
2022-11-08T06:15:26.337Z,14.10
2022-11-08T06:18:29.657Z,10.60
2022-11-08T06:21:32.672Z,9.83
2022-11-08T06:24:35.799Z,11.98
2022-11-08T06:27:38.828Z,19.55
2022-11-08T06:30:43.502Z,13.20
2022-11-08T06:33:46.737Z,13.82
2022-11-08T06:36:49.738Z,10.27
2022-11-08T06:39:52.772Z,11.13
2022-11-08T06:42:55.816Z,11.90
2022-11-08T06:46:03.149Z,8.65
2022-11-08T06:49:06.226Z,9.30
2022-11-08T06:52:10.081Z,14.13
2022-11-08T06:55:13.104Z,13.15
2022-11-08T06:58:16.298Z,11.25
2022-11-08T07:01:20.753Z,7.77
2022-11-08T07:04:24.663Z,13.18
2022-11-08T07:07:27.719Z,9.63
2022-11-08T07:10:33.394Z,11.10
2022-11-08T07:13:36.536Z,8.70
2022-11-08T07:16:41.929Z,9.15
2022-11-08T07:19:45.248Z,14.57
2022-11-08T07:22:48.298Z,10.87
2022-11-08T07:25:51.388Z,8.32
2022-11-08T07:28:54.465Z,6.78
2022-11-08T07:31:58.917Z,10.40
2022-11-08T07:35:02.028Z,8.52
2022-11-08T07:38:05.329Z,7.55
2022-11-08T07:41:09.703Z,9.10
2022-11-08T07:44:12.874Z,7.43
2022-11-08T07:47:17.561Z,7.93
2022-11-08T07:50:22.156Z,9.38
2022-11-08T07:53:26.026Z,8.40
2022-11-08T07:56:29.345Z,9.77
2022-11-08T07:59:32.403Z,11.13
2022-11-08T08:02:36.938Z,8.10
2022-11-08T08:05:42.966Z,9.27
2022-11-08T08:08:46.045Z,6.95
2022-11-08T08:11:49.075Z,12.48
2022-11-08T08:14:52.221Z,9.95
2022-11-08T08:17:57.002Z,7.10
2022-11-08T08:21:00.662Z,7.70
2022-11-08T08:24:03.782Z,6.43
2022-11-08T08:27:06.854Z,9.45
2022-11-08T08:30:10.987Z,6.47
2022-11-08T08:36:35.737Z,8.30
2022-11-08T08:39:39.026Z,6.32
2022-11-08T08:42:42.276Z,7.57
2022-11-08T08:45:45.489Z,7.47
2022-11-08T08:48:49.916Z,7.35
2022-11-08T08:51:52.884Z,5.38
2022-11-08T08:54:55.966Z,8.18
2022-11-08T08:57:59.702Z,9.90
2022-11-08T09:04:29.035Z,10.00
2022-11-08T09:07:32.310Z,10.38
2022-11-08T09:10:35.533Z,8.30
2022-11-08T09:13:38.670Z,8.70
2022-11-08T09:16:41.771Z,6.97
2022-11-08T09:19:46.601Z,6.40
2022-11-08T09:22:49.829Z,5.93
2022-11-08T09:25:58.512Z,9.30
2022-11-08T09:29:02.178Z,9.85
2022-11-08T09:32:05.750Z,3.72
2022-11-08T09:35:10.293Z,5.45
2022-11-08T09:38:13.424Z,5.70
2022-11-08T09:41:48.145Z,7.50
2022-11-08T09:45:27.017Z,8.30
2022-11-08T09:48:35.011Z,7.90
2022-11-08T09:51:41.354Z,8.82
2022-11-08T09:54:47.987Z,6.82
2022-11-08T09:58:02.524Z,9.93
2022-11-08T10:04:15.979Z,6.43
2022-11-08T10:07:33.568Z,7.32
2022-11-08T10:11:07.517Z,8.80
2022-11-08T10:14:33.971Z,7.40
2022-11-08T10:18:11.199Z,7.93
2022-11-08T10:21:39.123Z,8.75
2022-11-08T10:24:54.841Z,10.48
2022-11-08T10:28:02.904Z,10.48
2022-11-08T10:31:07.032Z,12.25
2022-11-08T10:37:20.572Z,7.85
2022-11-08T10:40:41.014Z,7.68
2022-11-08T10:43:52.302Z,7.32
2022-11-08T10:47:01.839Z,7.43
2022-11-08T10:50:16.009Z,6.03
2022-11-08T10:53:26.240Z,4.85
2022-11-08T10:56:33.017Z,4.68
2022-11-08T10:59:38.768Z,6.82
2022-11-08T11:02:42.341Z,6.23
2022-11-08T11:05:59.824Z,5.90
2022-11-08T11:09:18.243Z,9.20
2022-11-08T11:12:22.686Z,6.55
2022-11-08T11:15:32.517Z,4.82
2022-11-08T11:18:38.687Z,6.93
2022-11-08T11:21:45.083Z,6.57
2022-11-08T11:24:52.749Z,6.18
2022-11-08T11:28:00.244Z,6.00
2022-11-08T11:31:17.181Z,10.05
2022-11-08T11:34:47.926Z,6.70
2022-11-08T11:37:51.855Z,3.65
2022-11-08T11:41:00.571Z,8.25
2022-11-08T11:44:16.231Z,4.45
2022-11-08T11:47:30.520Z,8.60
2022-11-08T11:50:37.416Z,6.35
2022-11-08T11:53:46.086Z,5.07
2022-11-08T11:57:02.720Z,4.20
2022-11-08T12:00:12.903Z,4.57
2022-11-08T12:03:50.429Z,4.72
2022-11-08T12:07:05.563Z,8.52
2022-11-08T12:10:27.599Z,4.60
2022-11-08T12:13:51.507Z,5.93
2022-11-08T12:17:25.208Z,5.72
2022-11-08T12:20:43.208Z,4.97
2022-11-08T12:24:32.995Z,7.07
2022-11-08T12:27:49.634Z,4.55
2022-11-08T12:31:03.619Z,6.13
2022-11-08T12:34:23.596Z,5.80
2022-11-08T12:37:47.036Z,6.15
2022-11-08T12:41:01.155Z,5.07
2022-11-08T12:44:53.594Z,6.55
2022-11-08T12:48:07.369Z,9.27
2022-11-08T12:51:26.340Z,7.13
2022-11-08T12:54:35.619Z,6.95
2022-11-08T12:57:41.638Z,9.45
2022-11-08T13:00:52.319Z,7.75
2022-11-08T13:04:20.171Z,9.82
2022-11-08T13:07:37.848Z,5.65
2022-11-08T13:10:51.835Z,9.43
2022-11-08T13:14:00.342Z,7.10
2022-11-08T13:17:24.767Z,5.93
2022-11-08T13:20:42.882Z,7.97
2022-11-08T13:23:47.241Z,11.77
2022-11-08T13:26:50.323Z,8.23
2022-11-08T13:29:54.470Z,6.50
2022-11-08T13:33:10.683Z,11.45
2022-11-08T13:36:29.066Z,9.35
2022-11-08T13:40:02.446Z,6.03
2022-11-08T13:43:29.576Z,7.78
2022-11-08T13:46:49.129Z,6.07
2022-11-08T13:49:52.309Z,8.38
2022-11-08T13:53:05.493Z,7.87
2022-11-08T13:56:56.033Z,6.22
2022-11-08T14:00:00.692Z,7.63
2022-11-08T14:03:42.639Z,7.00
2022-11-08T14:07:00.752Z,8.27
2022-11-08T14:10:17.620Z,9.60
2022-11-08T14:13:30.896Z,6.20
2022-11-08T14:16:46.398Z,6.30
2022-11-08T14:19:51.937Z,7.90
2022-11-08T14:22:56.280Z,12.70
2022-11-08T14:26:02.643Z,6.82
2022-11-08T14:29:10.014Z,6.47
2022-11-08T14:32:19.993Z,8.65
2022-11-08T14:35:26.907Z,7.38
2022-11-08T14:38:34.138Z,8.68
2022-11-08T14:41:37.678Z,7.32
2022-11-08T14:44:45.386Z,6.05
2022-11-08T14:47:54.898Z,5.10
2022-11-08T14:51:01.587Z,6.68
2022-11-08T14:54:04.714Z,5.05
2022-11-08T14:57:39.863Z,5.40
2022-11-08T15:00:49.600Z,6.20
2022-11-08T15:03:56.906Z,5.82
2022-11-08T15:07:01.253Z,5.18
2022-11-08T15:10:10.833Z,5.60
2022-11-08T15:13:14.132Z,9.20
2022-11-08T15:16:19.355Z,7.57
2022-11-08T15:19:36.879Z,5.28
2022-11-08T15:22:40.608Z,6.88
2022-11-08T15:25:43.733Z,6.30
2022-11-08T15:29:01.334Z,4.95
2022-11-08T15:32:07.026Z,10.82
2022-11-08T15:35:24.115Z,6.47
2022-11-08T15:38:35.166Z,5.57
2022-11-08T15:41:41.461Z,9.40
2022-11-08T15:45:04.856Z,6.25
2022-11-08T15:48:24.125Z,7.22
2022-11-08T15:51:27.223Z,7.75
2022-11-08T15:54:30.325Z,8.63
2022-11-08T15:57:33.552Z,7.43
2022-11-08T16:00:38.176Z,7.35
2022-11-08T16:03:42.620Z,4.53
2022-11-08T16:06:46.004Z,4.72
2022-11-08T16:09:49.147Z,4.28
2022-11-08T16:12:52.321Z,7.72
2022-11-08T16:15:55.987Z,8.02
2022-11-08T16:19:00.471Z,11.00
2022-11-08T16:22:07.533Z,8.48
2022-11-08T16:25:10.606Z,9.10
2022-11-08T16:28:22.422Z,7.95
2022-11-08T16:31:25.996Z,4.85
2022-11-08T16:34:30.540Z,8.00
2022-11-08T16:37:33.590Z,9.32
2022-11-08T16:40:36.563Z,7.28
2022-11-08T16:43:39.797Z,11.18
2022-11-08T16:46:43.240Z,6.75
2022-11-08T16:49:51.234Z,5.65
2022-11-08T16:52:54.599Z,10.10
2022-11-08T16:55:57.951Z,5.45
2022-11-08T16:59:01.263Z,7.30
2022-11-08T17:02:04.430Z,8.80
2022-11-08T17:05:17.316Z,5.67
2022-11-08T17:08:20.522Z,9.70
2022-11-08T17:11:25.014Z,4.10
2022-11-08T17:14:28.050Z,6.78
2022-11-08T17:17:31.394Z,6.55
2022-11-08T17:20:37.233Z,6.93
2022-11-08T17:23:40.345Z,7.88
2022-11-08T17:26:43.401Z,7.68
2022-11-08T17:29:46.604Z,3.90
2022-11-08T17:32:49.771Z,7.60
2022-11-08T17:35:54.171Z,6.65
2022-11-08T17:38:57.182Z,7.65
2022-11-08T17:42:00.411Z,7.32
2022-11-08T17:45:03.462Z,5.40
2022-11-08T17:48:06.789Z,8.50
2022-11-08T17:51:12.040Z,7.00
2022-11-08T17:54:15.091Z,5.65
2022-11-08T17:57:18.179Z,6.88
2022-11-08T18:00:21.667Z,7.32
2022-11-08T18:03:27.063Z,5.63
2022-11-08T18:06:31.730Z,6.53
2022-11-08T18:09:35.202Z,9.15
2022-11-08T18:12:38.742Z,10.52
2022-11-08T18:15:41.840Z,4.47
2022-11-08T18:18:46.750Z,10.20
2022-11-08T18:21:51.813Z,6.35
2022-11-08T18:24:54.955Z,5.10
2022-11-08T18:27:57.916Z,6.55
2022-11-08T18:31:07.889Z,9.00
2022-11-08T18:34:10.957Z,10.93
2022-11-08T18:37:15.585Z,7.47
2022-11-08T18:40:18.972Z,6.82
2022-11-08T18:43:22.069Z,9.27
2022-11-08T18:46:27.873Z,8.48
2022-11-08T18:49:30.959Z,4.95
2022-11-08T18:52:35.350Z,4.43
2022-11-08T18:55:38.439Z,8.95
2022-11-08T18:58:43.592Z,6.72
2022-11-08T19:01:46.646Z,5.40
2022-11-08T19:04:49.790Z,4.38
2022-11-08T19:07:54.167Z,7.00
2022-11-08T19:11:01.312Z,6.32
2022-11-08T19:14:04.649Z,4.82
2022-11-08T19:17:07.759Z,5.93
2022-11-08T19:20:12.111Z,6.18
2022-11-08T19:23:16.874Z,4.20
2022-11-08T19:26:22.944Z,4.10
2022-11-08T19:29:25.969Z,3.83
2022-11-08T19:32:28.982Z,3.08
2022-11-08T19:35:32.045Z,3.85
2022-11-08T19:38:38.630Z,4.25
2022-11-08T19:41:42.126Z,10.93
2022-11-08T19:44:45.171Z,5.88
2022-11-08T19:47:50.471Z,5.40
2022-11-08T19:50:53.637Z,7.88
2022-11-08T19:53:59.932Z,4.35
2022-11-08T19:57:04.591Z,3.83
2022-11-08T20:00:11.276Z,3.58
2022-11-08T20:03:14.272Z,6.65
2022-11-08T20:06:20.370Z,4.00
2022-11-08T20:09:29.967Z,5.43
2022-11-08T20:12:33.655Z,4.25
2022-11-08T20:15:36.741Z,6.10
2022-11-08T20:18:40.145Z,3.50
2022-11-08T20:21:46.112Z,6.93
2022-11-08T20:24:50.806Z,5.32
2022-11-08T20:27:53.778Z,4.35
2022-11-08T20:31:03.573Z,6.22
2022-11-08T20:34:10.127Z,4.80
2022-11-08T20:37:14.560Z,9.63
2022-11-08T20:40:19.029Z,8.63
2022-11-08T20:43:22.292Z,3.60
2022-11-08T20:46:25.956Z,4.20
2022-11-08T20:49:29.188Z,6.20
2022-11-08T20:52:33.026Z,5.30
2022-11-08T20:55:37.587Z,4.97
2022-11-08T20:58:41.360Z,8.68
2022-11-08T21:01:44.704Z,5.25
2022-11-08T21:04:47.819Z,6.13
2022-11-08T21:08:57.392Z,9.70
2022-11-08T21:11:16.750Z,5.57
2022-11-08T21:14:20.029Z,4.13
2022-11-08T21:17:23.045Z,8.73
2022-11-08T21:20:26.776Z,5.03
2022-11-08T21:23:30.291Z,6.07
2022-11-08T21:26:36.783Z,5.20
2022-11-08T21:29:40.481Z,6.65
2022-11-08T21:32:43.542Z,6.68
2022-11-08T21:35:50.679Z,8.25
2022-11-08T21:38:54.417Z,4.43
2022-11-08T21:41:58.988Z,5.45
2022-11-08T21:45:02.299Z,5.75
2022-11-08T21:48:11.139Z,5.40
2022-11-08T21:51:17.128Z,4.93
2022-11-08T21:54:20.626Z,10.15
2022-11-08T21:57:25.011Z,9.80
2022-11-08T22:00:28.509Z,4.25
2022-11-08T22:03:31.587Z,5.22
2022-11-08T22:06:36.134Z,4.53
2022-11-08T22:09:39.423Z,5.75
2022-11-08T22:12:43.826Z,6.07
2022-11-08T22:15:46.930Z,5.72
2022-11-08T22:19:06.263Z,7.53
2022-11-08T22:22:09.829Z,4.93
2022-11-08T22:25:12.872Z,5.40
2022-11-08T22:28:17.987Z,5.35
2022-11-08T22:31:21.388Z,4.97
2022-11-08T22:34:24.414Z,4.40
2022-11-08T22:37:27.366Z,4.10
2022-11-08T22:40:30.237Z,3.47
2022-11-08T22:43:35.735Z,6.00
2022-11-08T22:46:38.797Z,4.00
2022-11-08T22:49:44.998Z,5.93
2022-11-08T22:52:49.638Z,4.13
2022-11-08T22:55:52.866Z,4.32
2022-11-08T22:58:57.766Z,5.27
2022-11-08T23:02:01.020Z,8.00
2022-11-08T23:05:04.326Z,3.73
2022-11-08T23:08:07.766Z,6.00
2022-11-08T23:11:29.177Z,3.60
2022-11-08T23:14:56.534Z,4.90
2022-11-08T23:17:59.577Z,4.68
2022-11-08T23:21:20.307Z,3.72
2022-11-08T23:24:23.397Z,4.18
2022-11-08T23:27:45.151Z,4.82
2022-11-08T23:31:06.460Z,5.95
2022-11-08T23:34:09.833Z,4.78
2022-11-08T23:37:13.107Z,5.50
2022-11-08T23:40:36.446Z,5.23
2022-11-08T23:43:53.398Z,6.97
2022-11-08T23:47:00.334Z,3.55
2022-11-08T23:50:03.722Z,4.20
2022-11-08T23:53:06.783Z,3.67
2022-11-08T23:56:10.119Z,5.47
2022-11-08T23:59:15.535Z,3.57
